sensor_id;sensor_type;location;lat;lon;timestamp;temperature;humidity
28947;DHT22;16052;50.930;5.326;2023-07-29T00:01:37;21.10;99.90
28947;DHT22;16052;50.930;5.326;2023-07-29T00:04:05;21.10;99.90
28947;DHT22;16052;50.930;5.326;2023-07-29T00:06:30;21.10;99.90
28947;DHT22;16052;50.930;5.326;2023-07-29T00:08:56;21.20;99.90
28947;DHT22;16052;50.930;5.326;2023-07-29T00:11:22;21.10;99.90
28947;DHT22;16052;50.930;5.326;2023-07-29T00:13:47;21.10;99.90
28947;DHT22;16052;50.930;5.326;2023-07-29T00:16:15;21.10;99.90
28947;DHT22;16052;50.930;5.326;2023-07-29T00:18:43;21.00;99.90
28947;DHT22;16052;50.930;5.326;2023-07-29T00:21:09;21.10;99.90
28947;DHT22;16052;50.930;5.326;2023-07-29T00:23:35;21.10;99.90
28947;DHT22;16052;50.930;5.326;2023-07-29T00:26:01;21.00;99.90
28947;DHT22;16052;50.930;5.326;2023-07-29T00:28:26;21.00;99.90
28947;DHT22;16052;50.930;5.326;2023-07-29T00:30:52;21.00;99.90
28947;DHT22;16052;50.930;5.326;2023-07-29T00:33:18;21.00;99.90
28947;DHT22;16052;50.930;5.326;2023-07-29T00:35:45;20.80;99.90
28947;DHT22;16052;50.930;5.326;2023-07-29T00:38:11;20.70;99.90
28947;DHT22;16052;50.930;5.326;2023-07-29T00:40:36;20.80;99.90
28947;DHT22;16052;50.930;5.326;2023-07-29T00:43:02;20.90;99.90
28947;DHT22;16052;50.930;5.326;2023-07-29T00:45:29;21.00;99.90
28947;DHT22;16052;50.930;5.326;2023-07-29T00:47:55;20.90;99.90
28947;DHT22;16052;50.930;5.326;2023-07-29T00:50:21;20.90;99.90
28947;DHT22;16052;50.930;5.326;2023-07-29T00:52:48;21.00;99.90
28947;DHT22;16052;50.930;5.326;2023-07-29T00:55:14;21.10;99.90
28947;DHT22;16052;50.930;5.326;2023-07-29T00:57:40;20.80;99.90
28947;DHT22;16052;50.930;5.326;2023-07-29T01:00:06;20.70;99.90
28947;DHT22;16052;50.930;5.326;2023-07-29T01:02:34;20.80;99.90
28947;DHT22;16052;50.930;5.326;2023-07-29T01:05:01;20.70;99.90
28947;DHT22;16052;50.930;5.326;2023-07-29T01:10:41;20.80;99.90
28947;DHT22;16052;50.930;5.326;2023-07-29T01:13:41;20.80;99.90
28947;DHT22;16052;50.930;5.326;2023-07-29T01:16:36;20.70;99.90
28947;DHT22;16052;50.930;5.326;2023-07-29T01:19:06;20.70;99.90
28947;DHT22;16052;50.930;5.326;2023-07-29T01:21:33;20.70;99.90
28947;DHT22;16052;50.930;5.326;2023-07-29T01:24:00;20.70;99.90
28947;DHT22;16052;50.930;5.326;2023-07-29T01:26:26;20.80;99.90
28947;DHT22;16052;50.930;5.326;2023-07-29T01:28:53;20.80;99.90
28947;DHT22;16052;50.930;5.326;2023-07-29T01:31:32;20.90;99.90
28947;DHT22;16052;50.930;5.326;2023-07-29T01:34:09;20.80;99.90
28947;DHT22;16052;50.930;5.326;2023-07-29T01:36:42;20.90;99.90
28947;DHT22;16052;50.930;5.326;2023-07-29T01:39:08;20.90;99.90
28947;DHT22;16052;50.930;5.326;2023-07-29T01:41:38;20.90;99.90
28947;DHT22;16052;50.930;5.326;2023-07-29T01:44:05;21.00;99.90
28947;DHT22;16052;50.930;5.326;2023-07-29T01:46:33;21.00;99.90
28947;DHT22;16052;50.930;5.326;2023-07-29T01:48:59;20.90;99.90
28947;DHT22;16052;50.930;5.326;2023-07-29T01:51:25;20.70;99.90
28947;DHT22;16052;50.930;5.326;2023-07-29T01:53:50;20.60;99.90
28947;DHT22;16052;50.930;5.326;2023-07-29T01:56:16;20.50;99.90
28947;DHT22;16052;50.930;5.326;2023-07-29T01:58:41;20.40;99.90
28947;DHT22;16052;50.930;5.326;2023-07-29T02:01:07;20.40;99.90
28947;DHT22;16052;50.930;5.326;2023-07-29T02:03:33;20.40;99.90
28947;DHT22;16052;50.930;5.326;2023-07-29T02:05:58;20.30;99.90
28947;DHT22;16052;50.930;5.326;2023-07-29T02:08:24;20.30;99.90
28947;DHT22;16052;50.930;5.326;2023-07-29T02:10:49;20.20;99.90
28947;DHT22;16052;50.930;5.326;2023-07-29T02:13:15;20.20;99.90
28947;DHT22;16052;50.930;5.326;2023-07-29T02:15:41;20.10;99.90
28947;DHT22;16052;50.930;5.326;2023-07-29T02:18:06;20.10;99.90
28947;DHT22;16052;50.930;5.326;2023-07-29T02:20:32;20.10;99.90
28947;DHT22;16052;50.930;5.326;2023-07-29T02:22:58;20.10;99.90
28947;DHT22;16052;50.930;5.326;2023-07-29T02:25:24;20.20;99.90
28947;DHT22;16052;50.930;5.326;2023-07-29T02:27:49;20.20;99.90
28947;DHT22;16052;50.930;5.326;2023-07-29T02:30:15;20.20;99.90
28947;DHT22;16052;50.930;5.326;2023-07-29T02:32:41;20.20;99.90
28947;DHT22;16052;50.930;5.326;2023-07-29T02:35:06;20.30;99.90
28947;DHT22;16052;50.930;5.326;2023-07-29T02:37:32;20.20;99.90
28947;DHT22;16052;50.930;5.326;2023-07-29T02:39:58;20.10;99.90
28947;DHT22;16052;50.930;5.326;2023-07-29T02:42:23;20.10;99.90
28947;DHT22;16052;50.930;5.326;2023-07-29T02:44:49;20.10;99.90
28947;DHT22;16052;50.930;5.326;2023-07-29T02:47:14;20.00;99.90
28947;DHT22;16052;50.930;5.326;2023-07-29T02:49:40;20.10;99.90
28947;DHT22;16052;50.930;5.326;2023-07-29T02:52:06;20.10;99.90
28947;DHT22;16052;50.930;5.326;2023-07-29T02:54:31;20.10;99.90
28947;DHT22;16052;50.930;5.326;2023-07-29T02:56:58;20.10;99.90
28947;DHT22;16052;50.930;5.326;2023-07-29T02:59:23;20.00;99.90
28947;DHT22;16052;50.930;5.326;2023-07-29T03:01:50;20.00;99.90
28947;DHT22;16052;50.930;5.326;2023-07-29T03:04:15;19.90;99.90
28947;DHT22;16052;50.930;5.326;2023-07-29T03:06:41;19.80;99.90
28947;DHT22;16052;50.930;5.326;2023-07-29T03:09:08;19.90;99.90
28947;DHT22;16052;50.930;5.326;2023-07-29T03:11:33;19.90;99.90
28947;DHT22;16052;50.930;5.326;2023-07-29T03:13:59;19.90;99.90
28947;DHT22;16052;50.930;5.326;2023-07-29T03:16:26;19.90;99.90
28947;DHT22;16052;50.930;5.326;2023-07-29T03:18:51;19.80;99.90
28947;DHT22;16052;50.930;5.326;2023-07-29T03:21:17;19.80;99.90
28947;DHT22;16052;50.930;5.326;2023-07-29T03:23:43;19.70;99.90
28947;DHT22;16052;50.930;5.326;2023-07-29T03:26:08;19.70;99.90
28947;DHT22;16052;50.930;5.326;2023-07-29T03:28:39;19.60;99.90
28947;DHT22;16052;50.930;5.326;2023-07-29T03:31:05;19.60;99.90
28947;DHT22;16052;50.930;5.326;2023-07-29T03:33:30;19.30;99.90
28947;DHT22;16052;50.930;5.326;2023-07-29T03:35:56;19.20;99.90
28947;DHT22;16052;50.930;5.326;2023-07-29T03:38:22;19.30;99.90
28947;DHT22;16052;50.930;5.326;2023-07-29T03:40:48;19.30;99.90
28947;DHT22;16052;50.930;5.326;2023-07-29T03:43:13;19.40;99.90
28947;DHT22;16052;50.930;5.326;2023-07-29T03:45:40;19.40;99.90
28947;DHT22;16052;50.930;5.326;2023-07-29T03:48:06;19.40;99.90
28947;DHT22;16052;50.930;5.326;2023-07-29T03:50:34;19.40;99.90
28947;DHT22;16052;50.930;5.326;2023-07-29T03:53:03;19.50;99.90
28947;DHT22;16052;50.930;5.326;2023-07-29T03:55:29;19.50;99.90
28947;DHT22;16052;50.930;5.326;2023-07-29T03:57:59;19.40;99.90
28947;DHT22;16052;50.930;5.326;2023-07-29T04:00:25;19.50;99.90
28947;DHT22;16052;50.930;5.326;2023-07-29T04:02:50;19.50;99.90
28947;DHT22;16052;50.930;5.326;2023-07-29T04:05:16;19.20;99.90
28947;DHT22;16052;50.930;5.326;2023-07-29T04:07:42;19.10;99.90
28947;DHT22;16052;50.930;5.326;2023-07-29T04:10:09;19.20;99.90
28947;DHT22;16052;50.930;5.326;2023-07-29T04:12:35;19.20;99.90
28947;DHT22;16052;50.930;5.326;2023-07-29T04:15:00;19.40;99.90
28947;DHT22;16052;50.930;5.326;2023-07-29T04:17:26;19.40;99.90
28947;DHT22;16052;50.930;5.326;2023-07-29T04:19:52;19.50;99.90
28947;DHT22;16052;50.930;5.326;2023-07-29T04:22:17;19.50;99.90
28947;DHT22;16052;50.930;5.326;2023-07-29T04:24:43;19.50;99.90
28947;DHT22;16052;50.930;5.326;2023-07-29T04:27:08;19.50;99.90
28947;DHT22;16052;50.930;5.326;2023-07-29T04:29:35;19.50;99.90
28947;DHT22;16052;50.930;5.326;2023-07-29T04:32:04;19.40;99.90
28947;DHT22;16052;50.930;5.326;2023-07-29T04:34:30;19.40;99.90
28947;DHT22;16052;50.930;5.326;2023-07-29T04:36:55;19.40;99.90
28947;DHT22;16052;50.930;5.326;2023-07-29T04:39:21;19.30;99.90
28947;DHT22;16052;50.930;5.326;2023-07-29T04:41:47;19.30;99.90
28947;DHT22;16052;50.930;5.326;2023-07-29T04:44:12;19.20;99.90
28947;DHT22;16052;50.930;5.326;2023-07-29T04:46:38;19.20;99.90
28947;DHT22;16052;50.930;5.326;2023-07-29T04:49:04;19.10;99.90
28947;DHT22;16052;50.930;5.326;2023-07-29T04:51:30;19.10;99.90
28947;DHT22;16052;50.930;5.326;2023-07-29T04:53:57;19.10;99.90
28947;DHT22;16052;50.930;5.326;2023-07-29T04:56:23;19.10;99.90
28947;DHT22;16052;50.930;5.326;2023-07-29T04:58:48;19.10;99.90
28947;DHT22;16052;50.930;5.326;2023-07-29T05:01:14;19.00;99.90
28947;DHT22;16052;50.930;5.326;2023-07-29T05:03:40;19.00;99.90
28947;DHT22;16052;50.930;5.326;2023-07-29T05:06:05;19.00;99.90
28947;DHT22;16052;50.930;5.326;2023-07-29T05:08:31;19.00;99.90
28947;DHT22;16052;50.930;5.326;2023-07-29T05:10:57;19.00;99.90
28947;DHT22;16052;50.930;5.326;2023-07-29T05:13:23;19.00;99.90
28947;DHT22;16052;50.930;5.326;2023-07-29T05:15:49;18.90;99.90
28947;DHT22;16052;50.930;5.326;2023-07-29T05:18:16;18.90;99.90
28947;DHT22;16052;50.930;5.326;2023-07-29T05:20:42;18.90;99.90
28947;DHT22;16052;50.930;5.326;2023-07-29T05:23:08;18.80;99.90
28947;DHT22;16052;50.930;5.326;2023-07-29T05:25:33;18.80;99.90
28947;DHT22;16052;50.930;5.326;2023-07-29T05:28:02;18.90;99.90
28947;DHT22;16052;50.930;5.326;2023-07-29T05:30:29;18.90;99.90
28947;DHT22;16052;50.930;5.326;2023-07-29T05:33:00;18.90;99.90
28947;DHT22;16052;50.930;5.326;2023-07-29T05:35:26;18.90;99.90
28947;DHT22;16052;50.930;5.326;2023-07-29T05:37:52;18.90;99.90
28947;DHT22;16052;50.930;5.326;2023-07-29T05:40:17;19.00;99.90
28947;DHT22;16052;50.930;5.326;2023-07-29T05:42:43;19.00;99.90
28947;DHT22;16052;50.930;5.326;2023-07-29T05:45:13;19.00;99.90
28947;DHT22;16052;50.930;5.326;2023-07-29T05:47:39;19.00;99.90
28947;DHT22;16052;50.930;5.326;2023-07-29T05:50:05;19.10;99.90
28947;DHT22;16052;50.930;5.326;2023-07-29T05:52:34;19.00;99.90
28947;DHT22;16052;50.930;5.326;2023-07-29T05:55:00;19.20;99.90
28947;DHT22;16052;50.930;5.326;2023-07-29T05:57:26;19.20;99.90
28947;DHT22;16052;50.930;5.326;2023-07-29T05:59:52;19.00;99.90
28947;DHT22;16052;50.930;5.326;2023-07-29T06:02:17;18.90;99.90
28947;DHT22;16052;50.930;5.326;2023-07-29T06:04:43;19.00;99.90
28947;DHT22;16052;50.930;5.326;2023-07-29T06:07:09;19.10;99.90
28947;DHT22;16052;50.930;5.326;2023-07-29T06:09:34;19.00;99.90
28947;DHT22;16052;50.930;5.326;2023-07-29T06:12:00;19.10;99.90
28947;DHT22;16052;50.930;5.326;2023-07-29T06:14:27;19.10;99.90
28947;DHT22;16052;50.930;5.326;2023-07-29T06:16:52;19.10;99.90
28947;DHT22;16052;50.930;5.326;2023-07-29T06:19:20;19.20;99.90
28947;DHT22;16052;50.930;5.326;2023-07-29T06:21:46;19.20;99.90
28947;DHT22;16052;50.930;5.326;2023-07-29T06:24:12;19.30;99.90
28947;DHT22;16052;50.930;5.326;2023-07-29T06:26:38;19.40;99.90
28947;DHT22;16052;50.930;5.326;2023-07-29T06:29:03;19.40;99.90
28947;DHT22;16052;50.930;5.326;2023-07-29T06:31:29;19.30;99.90
28947;DHT22;16052;50.930;5.326;2023-07-29T06:33:55;19.30;99.90
28947;DHT22;16052;50.930;5.326;2023-07-29T06:36:21;19.30;99.90
28947;DHT22;16052;50.930;5.326;2023-07-29T06:38:46;19.30;99.90
28947;DHT22;16052;50.930;5.326;2023-07-29T06:41:12;19.20;99.90
28947;DHT22;16052;50.930;5.326;2023-07-29T06:43:37;19.30;99.90
28947;DHT22;16052;50.930;5.326;2023-07-29T06:46:03;19.20;99.90
28947;DHT22;16052;50.930;5.326;2023-07-29T06:48:29;19.20;99.90
28947;DHT22;16052;50.930;5.326;2023-07-29T06:50:54;19.30;99.90
28947;DHT22;16052;50.930;5.326;2023-07-29T06:53:21;19.20;99.90
28947;DHT22;16052;50.930;5.326;2023-07-29T06:55:46;19.20;99.90
28947;DHT22;16052;50.930;5.326;2023-07-29T06:58:12;19.30;99.90
28947;DHT22;16052;50.930;5.326;2023-07-29T07:00:38;19.30;99.90
28947;DHT22;16052;50.930;5.326;2023-07-29T07:03:03;19.40;99.90
28947;DHT22;16052;50.930;5.326;2023-07-29T07:05:29;19.40;99.90
28947;DHT22;16052;50.930;5.326;2023-07-29T07:07:55;19.40;99.90
28947;DHT22;16052;50.930;5.326;2023-07-29T07:10:22;19.50;99.90
28947;DHT22;16052;50.930;5.326;2023-07-29T07:12:48;19.60;99.90
28947;DHT22;16052;50.930;5.326;2023-07-29T07:15:13;19.70;99.90
28947;DHT22;16052;50.930;5.326;2023-07-29T07:17:39;19.70;99.90
28947;DHT22;16052;50.930;5.326;2023-07-29T07:20:05;19.80;99.90
28947;DHT22;16052;50.930;5.326;2023-07-29T07:22:31;19.90;99.90
28947;DHT22;16052;50.930;5.326;2023-07-29T07:24:57;19.80;99.90
28947;DHT22;16052;50.930;5.326;2023-07-29T07:27:22;19.70;99.90
28947;DHT22;16052;50.930;5.326;2023-07-29T07:29:48;19.80;99.90
28947;DHT22;16052;50.930;5.326;2023-07-29T07:32:14;19.80;99.90
28947;DHT22;16052;50.930;5.326;2023-07-29T07:34:39;19.80;99.90
28947;DHT22;16052;50.930;5.326;2023-07-29T07:37:05;19.80;99.90
28947;DHT22;16052;50.930;5.326;2023-07-29T07:39:31;19.80;99.90
28947;DHT22;16052;50.930;5.326;2023-07-29T07:41:57;19.90;99.90
28947;DHT22;16052;50.930;5.326;2023-07-29T07:44:23;20.00;99.90
28947;DHT22;16052;50.930;5.326;2023-07-29T07:46:52;20.00;99.90
28947;DHT22;16052;50.930;5.326;2023-07-29T07:49:17;20.00;99.90
28947;DHT22;16052;50.930;5.326;2023-07-29T07:51:46;20.10;97.90
28947;DHT22;16052;50.930;5.326;2023-07-29T07:54:11;20.00;96.50
28947;DHT22;16052;50.930;5.326;2023-07-29T07:56:37;19.90;98.40
28947;DHT22;16052;50.930;5.326;2023-07-29T07:59:04;20.00;99.90
28947;DHT22;16052;50.930;5.326;2023-07-29T08:01:35;20.00;99.90
28947;DHT22;16052;50.930;5.326;2023-07-29T08:04:01;20.10;99.90
28947;DHT22;16052;50.930;5.326;2023-07-29T08:06:27;20.20;99.90
28947;DHT22;16052;50.930;5.326;2023-07-29T08:08:52;20.30;99.60
28947;DHT22;16052;50.930;5.326;2023-07-29T08:11:18;20.40;98.90
28947;DHT22;16052;50.930;5.326;2023-07-29T08:13:43;20.50;97.40
28947;DHT22;16052;50.930;5.326;2023-07-29T08:16:09;20.40;97.30
28947;DHT22;16052;50.930;5.326;2023-07-29T08:18:34;20.50;96.60
28947;DHT22;16052;50.930;5.326;2023-07-29T08:21:01;20.60;94.20
28947;DHT22;16052;50.930;5.326;2023-07-29T08:23:31;20.60;95.00
28947;DHT22;16052;50.930;5.326;2023-07-29T08:25:59;20.60;96.40
28947;DHT22;16052;50.930;5.326;2023-07-29T08:28:32;20.60;94.10
28947;DHT22;16052;50.930;5.326;2023-07-29T08:30:58;20.70;90.70
28947;DHT22;16052;50.930;5.326;2023-07-29T08:33:24;20.70;92.80
28947;DHT22;16052;50.930;5.326;2023-07-29T08:35:50;20.70;92.30
28947;DHT22;16052;50.930;5.326;2023-07-29T08:38:16;20.70;92.30
28947;DHT22;16052;50.930;5.326;2023-07-29T08:41:25;20.60;91.10
28947;DHT22;16052;50.930;5.326;2023-07-29T08:43:32;20.60;88.40
28947;DHT22;16052;50.930;5.326;2023-07-29T08:45:59;20.60;92.00
28947;DHT22;16052;50.930;5.326;2023-07-29T08:48:40;20.60;92.60
28947;DHT22;16052;50.930;5.326;2023-07-29T08:51:10;20.60;95.40
28947;DHT22;16052;50.930;5.326;2023-07-29T08:53:37;20.70;94.00
28947;DHT22;16052;50.930;5.326;2023-07-29T08:56:04;20.70;95.30
28947;DHT22;16052;50.930;5.326;2023-07-29T08:58:31;20.90;91.80
28947;DHT22;16052;50.930;5.326;2023-07-29T09:00:57;20.80;86.70
28947;DHT22;16052;50.930;5.326;2023-07-29T09:03:23;20.80;90.60
28947;DHT22;16052;50.930;5.326;2023-07-29T09:05:49;20.90;91.30
28947;DHT22;16052;50.930;5.326;2023-07-29T09:08:15;21.00;86.40
28947;DHT22;16052;50.930;5.326;2023-07-29T09:10:41;21.10;90.70
28947;DHT22;16052;50.930;5.326;2023-07-29T09:13:07;21.20;90.50
28947;DHT22;16052;50.930;5.326;2023-07-29T09:15:34;21.40;89.60
28947;DHT22;16052;50.930;5.326;2023-07-29T09:18:10;21.40;69.00
28947;DHT22;16052;50.930;5.326;2023-07-29T09:20:37;21.30;70.10
28947;DHT22;16052;50.930;5.326;2023-07-29T09:23:02;21.30;74.20
28947;DHT22;16052;50.930;5.326;2023-07-29T09:25:29;21.20;69.10
28947;DHT22;16052;50.930;5.326;2023-07-29T09:27:59;21.20;66.30
28947;DHT22;16052;50.930;5.326;2023-07-29T09:30:25;21.20;70.20
28947;DHT22;16052;50.930;5.326;2023-07-29T09:32:58;21.30;73.90
28947;DHT22;16052;50.930;5.326;2023-07-29T09:35:30;21.40;71.60
28947;DHT22;16052;50.930;5.326;2023-07-29T09:37:57;21.40;66.30
28947;DHT22;16052;50.930;5.326;2023-07-29T09:40:23;21.30;64.50
28947;DHT22;16052;50.930;5.326;2023-07-29T09:42:53;21.30;64.80
28947;DHT22;16052;50.930;5.326;2023-07-29T09:45:26;21.30;62.30
28947;DHT22;16052;50.930;5.326;2023-07-29T09:47:53;21.40;66.60
28947;DHT22;16052;50.930;5.326;2023-07-29T09:50:29;21.40;62.80
28947;DHT22;16052;50.930;5.326;2023-07-29T09:52:56;21.50;63.30
28947;DHT22;16052;50.930;5.326;2023-07-29T09:55:24;21.60;59.10
28947;DHT22;16052;50.930;5.326;2023-07-29T09:57:57;21.70;59.20
28947;DHT22;16052;50.930;5.326;2023-07-29T10:00:27;21.70;66.60
28947;DHT22;16052;50.930;5.326;2023-07-29T10:02:54;21.90;61.10
28947;DHT22;16052;50.930;5.326;2023-07-29T10:05:20;21.80;52.40
28947;DHT22;16052;50.930;5.326;2023-07-29T10:07:47;21.90;55.50
28947;DHT22;16052;50.930;5.326;2023-07-29T10:10:14;22.00;50.30
28947;DHT22;16052;50.930;5.326;2023-07-29T10:12:41;22.10;52.20
28947;DHT22;16052;50.930;5.326;2023-07-29T10:15:10;22.20;49.20
28947;DHT22;16052;50.930;5.326;2023-07-29T10:17:36;22.30;49.40
28947;DHT22;16052;50.930;5.326;2023-07-29T10:20:07;22.20;52.10
28947;DHT22;16052;50.930;5.326;2023-07-29T10:22:38;22.20;55.80
28947;DHT22;16052;50.930;5.326;2023-07-29T10:25:38;22.00;57.80
28947;DHT22;16052;50.930;5.326;2023-07-29T10:28:04;22.10;64.90
28947;DHT22;16052;50.930;5.326;2023-07-29T10:30:31;22.10;70.70
28947;DHT22;16052;50.930;5.326;2023-07-29T10:32:59;22.40;65.70
28947;DHT22;16052;50.930;5.326;2023-07-29T10:35:27;22.40;52.90
28947;DHT22;16052;50.930;5.326;2023-07-29T10:37:53;22.50;47.60
28947;DHT22;16052;50.930;5.326;2023-07-29T10:40:19;22.50;44.80
28947;DHT22;16052;50.930;5.326;2023-07-29T10:43:09;22.60;45.40
28947;DHT22;16052;50.930;5.326;2023-07-29T10:45:39;22.80;43.00
28947;DHT22;16052;50.930;5.326;2023-07-29T10:53:47;22.50;40.00
28947;DHT22;16052;50.930;5.326;2023-07-29T10:56:13;22.50;41.00
28947;DHT22;16052;50.930;5.326;2023-07-29T10:58:38;22.50;40.80
28947;DHT22;16052;50.930;5.326;2023-07-29T11:01:13;22.50;46.70
28947;DHT22;16052;50.930;5.326;2023-07-29T11:09:54;22.30;72.60
28947;DHT22;16052;50.930;5.326;2023-07-29T11:12:49;22.20;78.90
28947;DHT22;16052;50.930;5.326;2023-07-29T11:15:27;22.30;89.30
28947;DHT22;16052;50.930;5.326;2023-07-29T11:17:57;22.40;86.40
28947;DHT22;16052;50.930;5.326;2023-07-29T11:20:31;22.40;83.10
28947;DHT22;16052;50.930;5.326;2023-07-29T11:23:00;22.40;87.80
28947;DHT22;16052;50.930;5.326;2023-07-29T11:25:28;22.40;87.00
28947;DHT22;16052;50.930;5.326;2023-07-29T11:27:57;22.30;89.50
28947;DHT22;16052;50.930;5.326;2023-07-29T11:30:22;22.30;92.90
28947;DHT22;16052;50.930;5.326;2023-07-29T11:32:59;22.00;97.30
28947;DHT22;16052;50.930;5.326;2023-07-29T11:35:25;21.60;98.60
28947;DHT22;16052;50.930;5.326;2023-07-29T11:37:53;21.40;99.90
28947;DHT22;16052;50.930;5.326;2023-07-29T11:40:20;21.30;99.90
28947;DHT22;16052;50.930;5.326;2023-07-29T11:42:47;21.30;99.90
28947;DHT22;16052;50.930;5.326;2023-07-29T11:45:14;21.20;99.90
28947;DHT22;16052;50.930;5.326;2023-07-29T11:47:40;21.10;99.90
28947;DHT22;16052;50.930;5.326;2023-07-29T11:50:08;21.10;99.90
28947;DHT22;16052;50.930;5.326;2023-07-29T11:52:41;21.10;99.90
28947;DHT22;16052;50.930;5.326;2023-07-29T11:55:08;21.10;99.90
28947;DHT22;16052;50.930;5.326;2023-07-29T11:57:35;21.00;99.90
28947;DHT22;16052;50.930;5.326;2023-07-29T12:00:03;20.90;99.90
28947;DHT22;16052;50.930;5.326;2023-07-29T12:02:30;20.90;99.90
28947;DHT22;16052;50.930;5.326;2023-07-29T12:04:56;20.80;99.90
28947;DHT22;16052;50.930;5.326;2023-07-29T12:07:22;20.60;99.90
28947;DHT22;16052;50.930;5.326;2023-07-29T12:09:49;20.60;99.90
28947;DHT22;16052;50.930;5.326;2023-07-29T12:12:16;20.50;99.90
28947;DHT22;16052;50.930;5.326;2023-07-29T12:14:45;20.60;99.90
28947;DHT22;16052;50.930;5.326;2023-07-29T12:17:14;20.60;99.90
28947;DHT22;16052;50.930;5.326;2023-07-29T12:19:40;20.70;99.90
28947;DHT22;16052;50.930;5.326;2023-07-29T12:22:08;20.80;99.90
28947;DHT22;16052;50.930;5.326;2023-07-29T12:24:37;20.80;99.90
28947;DHT22;16052;50.930;5.326;2023-07-29T12:27:03;20.90;99.90
28947;DHT22;16052;50.930;5.326;2023-07-29T12:29:29;20.80;99.90
28947;DHT22;16052;50.930;5.326;2023-07-29T12:31:59;20.90;99.90
28947;DHT22;16052;50.930;5.326;2023-07-29T12:34:27;20.80;99.90
28947;DHT22;16052;50.930;5.326;2023-07-29T12:36:54;20.40;99.90
28947;DHT22;16052;50.930;5.326;2023-07-29T12:39:28;20.10;99.90
28947;DHT22;16052;50.930;5.326;2023-07-29T12:41:58;19.80;99.90
28947;DHT22;16052;50.930;5.326;2023-07-29T12:44:26;19.80;99.90
28947;DHT22;16052;50.930;5.326;2023-07-29T12:46:52;19.90;99.90
28947;DHT22;16052;50.930;5.326;2023-07-29T12:49:18;20.00;99.90
28947;DHT22;16052;50.930;5.326;2023-07-29T12:51:45;20.20;99.90
28947;DHT22;16052;50.930;5.326;2023-07-29T12:54:11;20.30;99.90
28947;DHT22;16052;50.930;5.326;2023-07-29T12:56:36;20.50;99.90
28947;DHT22;16052;50.930;5.326;2023-07-29T12:59:02;20.60;99.90
28947;DHT22;16052;50.930;5.326;2023-07-29T13:01:29;20.70;99.90
28947;DHT22;16052;50.930;5.326;2023-07-29T13:03:55;20.90;99.90
28947;DHT22;16052;50.930;5.326;2023-07-29T13:06:22;21.10;99.90
28947;DHT22;16052;50.930;5.326;2023-07-29T13:08:48;21.30;99.90
28947;DHT22;16052;50.930;5.326;2023-07-29T13:11:15;21.30;99.90
28947;DHT22;16052;50.930;5.326;2023-07-29T13:13:40;21.30;99.90
28947;DHT22;16052;50.930;5.326;2023-07-29T13:16:06;21.30;99.90
28947;DHT22;16052;50.930;5.326;2023-07-29T13:18:32;21.30;99.90
28947;DHT22;16052;50.930;5.326;2023-07-29T13:20:58;21.30;99.90
28947;DHT22;16052;50.930;5.326;2023-07-29T13:23:25;21.30;99.90
28947;DHT22;16052;50.930;5.326;2023-07-29T13:25:52;21.40;99.90
28947;DHT22;16052;50.930;5.326;2023-07-29T13:28:17;21.40;99.90
28947;DHT22;16052;50.930;5.326;2023-07-29T13:30:44;21.40;99.90
28947;DHT22;16052;50.930;5.326;2023-07-29T13:33:10;21.30;99.90
28947;DHT22;16052;50.930;5.326;2023-07-29T13:35:35;21.30;99.90
28947;DHT22;16052;50.930;5.326;2023-07-29T13:38:01;21.30;99.90
28947;DHT22;16052;50.930;5.326;2023-07-29T13:40:27;21.30;99.90
28947;DHT22;16052;50.930;5.326;2023-07-29T13:42:54;21.20;99.90
28947;DHT22;16052;50.930;5.326;2023-07-29T13:45:20;21.20;99.90
28947;DHT22;16052;50.930;5.326;2023-07-29T13:47:48;21.20;99.90
28947;DHT22;16052;50.930;5.326;2023-07-29T13:50:13;21.10;99.90
28947;DHT22;16052;50.930;5.326;2023-07-29T13:52:39;21.00;99.90
28947;DHT22;16052;50.930;5.326;2023-07-29T13:55:05;21.10;99.90
28947;DHT22;16052;50.930;5.326;2023-07-29T13:57:32;21.30;99.90
28947;DHT22;16052;50.930;5.326;2023-07-29T13:59:58;21.50;99.90
28947;DHT22;16052;50.930;5.326;2023-07-29T14:02:23;21.60;99.90
28947;DHT22;16052;50.930;5.326;2023-07-29T14:04:49;21.80;99.90
28947;DHT22;16052;50.930;5.326;2023-07-29T14:07:15;22.00;99.90
28947;DHT22;16052;50.930;5.326;2023-07-29T14:09:41;22.10;99.90
28947;DHT22;16052;50.930;5.326;2023-07-29T14:12:08;22.10;99.90
28947;DHT22;16052;50.930;5.326;2023-07-29T14:14:38;22.30;99.90
28947;DHT22;16052;50.930;5.326;2023-07-29T14:17:03;22.50;99.90
28947;DHT22;16052;50.930;5.326;2023-07-29T14:19:30;22.70;99.90
28947;DHT22;16052;50.930;5.326;2023-07-29T14:21:55;22.60;99.90
28947;DHT22;16052;50.930;5.326;2023-07-29T14:24:21;22.60;99.90
28947;DHT22;16052;50.930;5.326;2023-07-29T14:26:48;22.60;99.90
28947;DHT22;16052;50.930;5.326;2023-07-29T14:29:13;22.60;99.90
28947;DHT22;16052;50.930;5.326;2023-07-29T14:31:39;22.50;99.90
28947;DHT22;16052;50.930;5.326;2023-07-29T14:34:05;22.50;99.90
28947;DHT22;16052;50.930;5.326;2023-07-29T14:36:30;22.70;99.90
28947;DHT22;16052;50.930;5.326;2023-07-29T14:38:56;22.60;99.90
28947;DHT22;16052;50.930;5.326;2023-07-29T14:41:22;22.60;96.00
28947;DHT22;16052;50.930;5.326;2023-07-29T14:43:47;22.50;99.30
28947;DHT22;16052;50.930;5.326;2023-07-29T14:46:13;22.60;99.90
28947;DHT22;16052;50.930;5.326;2023-07-29T14:48:39;22.90;99.90
28947;DHT22;16052;50.930;5.326;2023-07-29T14:51:04;22.90;99.40
28947;DHT22;16052;50.930;5.326;2023-07-29T14:53:30;23.00;96.10
28947;DHT22;16052;50.930;5.326;2023-07-29T14:55:55;23.00;94.00
28947;DHT22;16052;50.930;5.326;2023-07-29T14:58:21;22.80;93.60
28947;DHT22;16052;50.930;5.326;2023-07-29T15:00:47;22.80;97.30
28947;DHT22;16052;50.930;5.326;2023-07-29T15:03:12;22.70;99.90
28947;DHT22;16052;50.930;5.326;2023-07-29T15:05:38;22.70;98.70
28947;DHT22;16052;50.930;5.326;2023-07-29T15:08:06;22.80;98.90
28947;DHT22;16052;50.930;5.326;2023-07-29T15:10:31;22.80;99.90
28947;DHT22;16052;50.930;5.326;2023-07-29T15:12:57;22.80;98.70
28947;DHT22;16052;50.930;5.326;2023-07-29T15:15:22;22.80;99.60
28947;DHT22;16052;50.930;5.326;2023-07-29T15:17:48;22.70;99.90
28947;DHT22;16052;50.930;5.326;2023-07-29T15:20:14;22.70;99.90
28947;DHT22;16052;50.930;5.326;2023-07-29T15:22:39;22.70;98.80
28947;DHT22;16052;50.930;5.326;2023-07-29T15:25:05;22.70;97.40
28947;DHT22;16052;50.930;5.326;2023-07-29T15:27:31;22.60;85.30
28947;DHT22;16052;50.930;5.326;2023-07-29T15:29:57;22.80;86.50
28947;DHT22;16052;50.930;5.326;2023-07-29T15:32:22;22.70;73.80
28947;DHT22;16052;50.930;5.326;2023-07-29T15:34:48;22.70;74.50
28947;DHT22;16052;50.930;5.326;2023-07-29T15:37:15;22.70;72.60
28947;DHT22;16052;50.930;5.326;2023-07-29T15:39:41;22.80;79.40
28947;DHT22;16052;50.930;5.326;2023-07-29T15:42:07;22.80;84.50
28947;DHT22;16052;50.930;5.326;2023-07-29T15:44:33;22.80;82.20